Flight Track Log - Related Links

Times and Time Zones

All times are in EDT time to prevent confusion due to time zone crossing. See the SKW5291 flight status page for this flight to view local times or setup timezone preferences in your user account.

Time Position Orientation Groundspeed Altitude Reporting Facility
EDT Latitude Longitude Course Direction KTS MPH feet Rate Location/Type
Wed 08:41:52 AM 44.2894 -105.5553 184° South 241 277 8,900  Level Denver Center
Wed 08:42:53 AM 44.2336 -105.5517 177° South 211 243 10,500 1,574 Climbing Denver Center
Wed 08:43:00 AM 43.9602 -105.4592 184° South  Level Estimated
Wed 08:43:54 AM 44.1786 -105.5517 180° South 207 238 12,100  Level Denver Center
Wed 08:44:00 AM 43.8825 -105.4433 180° South  Level Estimated
Wed 08:44:55 AM 44.1069 -105.5575 183° South 218 251 13,800  Level Denver Center
Wed 08:45:00 AM 43.8047 -105.4275 180° South  Level Estimated
Wed 08:45:56 AM 44.0456 -105.5617 183° South 228 262 15,500  Level Denver Center
Wed 08:46:00 AM 43.7412 -105.4916 216° Southwest  Level FlightAware Approximate
Wed 08:46:57 AM 43.9764 -105.5658 182° South 224 258 17,100  Level Denver Center
Wed 08:47:00 AM 43.6637 -105.4742 184° South  Level Estimated
Wed 08:47:58 AM 43.9189 -105.5675 181° South 218 251 18,100  Level Denver Center
Wed 08:48:59 AM 43.8569 -105.5728 184° South 228 262 19,200 1,131 Climbing Denver Center
Wed 08:50:00 AM 43.7858 -105.5761 182° South 229 264 20,400 1,082 Climbing Denver Center
Wed 08:51:01 AM 43.7231 -105.5817 184° South 234 269 21,400 885 Climbing Denver Center
Wed 08:52:02 AM 43.6619 -105.5733 174° South 234 269 22,200 836 Climbing Denver Center
Wed 08:53:03 AM 43.5892 -105.5567 171° South 237 273 23,100 836 Climbing Denver Center
Wed 08:54:04 AM 43.5267 -105.5456 173° South 238 274 23,900 829 Climbing Denver Center
Wed 08:55:06 AM 43.4539 -105.5322 172° South 236 272 24,800 537 Climbing Denver Center
Wed 08:56:07 AM 43.3908 -105.5231 174° South 237 273 25,000 49 Climbing Denver Center
Wed 08:57:08 AM 43.3294 -105.5108 172° South 234 269 24,900 -49 Descending Denver Center
Wed 08:58:09 AM 43.2561 -105.4978 173° South 237 273 24,900  Level Denver Center
Wed 08:59:10 AM 43.1928 -105.4856 172° South 239 275 24,900  Level Denver Center
Wed 09:00:11 AM 43.1403 -105.4764 173° South 239 275 24,900  Level Denver Center
Wed 09:01:12 AM 43.0603 -105.4617 172° South 229 264 24,900  Level Denver Center
Wed 09:02:13 AM 42.9997 -105.4492 171° South 229 264 24,900  Level Denver Center
Wed 09:03:14 AM 42.9294 -105.4367 173° South 228 262 24,900  Level Denver Center
Wed 09:04:15 AM 42.8683 -105.4264 173° South 230 265 24,900  Level Denver Center
Wed 09:05:16 AM 42.8058 -105.4158 173° South 234 269 24,900  Level Denver Center
Wed 09:06:17 AM 42.7344 -105.4047 173° South 232 267 24,900  Level Denver Center
Wed 09:07:18 AM 42.6739 -105.3936 172° South 230 265 24,900  Level Denver Center
Wed 09:08:19 AM 42.6156 -105.3839 173° South 223 257 24,900 49 Level Denver Center
Wed 09:09:20 AM 42.5458 -105.3700 172° South 227 261 25,000 49 Climbing Denver Center
Wed 09:10:21 AM 42.4869 -105.3594 172° South 224 258 25,000  Level Denver Center
Wed 09:11:22 AM 42.4186 -105.3472 172° South 223 257 25,000  Level Denver Center
Wed 09:12:23 AM 42.3619 -105.3375 173° South 217 250 25,000  Level Denver Center
Wed 09:13:24 AM 42.3033 -105.3269 172° South 220 253 25,000  Level Denver Center
Wed 09:14:25 AM 42.2344 -105.3142 172° South 222 255 25,000  Level Denver Center
Wed 09:15:27 AM 42.1756 -105.3044 173° South 223 257 25,000 -49 Level Denver Center
Wed 09:16:28 AM 42.1167 -105.2950 173° South 223 257 24,900  Descending Denver Center
Wed 09:17:29 AM 42.0483 -105.2836 173° South 222 255 25,000 49 Climbing Denver Center
Wed 09:18:30 AM 41.9900 -105.2722 172° South 221 254 25,000 -49 Level Denver Center
Wed 09:19:31 AM 41.9208 -105.2617 174° South 223 257 24,900 -393 Descending Denver Center
Wed 09:20:32 AM 41.8608 -105.2517 173° South 227 261 24,200 -738 Descending Denver Center
Wed 09:21:33 AM 41.8019 -105.2403 172° South 224 258 23,400 -885 Descending Denver Center
Wed 09:22:34 AM 41.7369 -105.2297 173° South 214 246 22,400 -885 Descending Denver Center
Wed 09:23:35 AM 41.6814 -105.2203 173° South 210 242 21,600 -836 Descending Denver Center
Wed 09:24:36 AM 41.6256 -105.2086 171° South 212 244 20,700 -984 Descending Denver Center
Wed 09:25:37 AM 41.5606 -105.1997 174° South 210 242 19,600 -984 Descending Denver Center
Wed 09:26:38 AM 41.5036 -105.1914 174° South 213 245 18,700 -934 Descending Denver Center
Wed 09:27:39 AM 41.4364 -105.1789 172° South 217 250 17,700 -934 Descending Denver Center
Wed 09:28:40 AM 41.3808 -105.1703 173° South 213 245 16,800 -885 Descending Denver Center
Wed 09:29:41 AM 41.3231 -105.1611 173° South 216 249 15,900 -896 Descending Denver Center
Wed 09:30:54 AM 41.2561 -105.1475 171° South 218 251 14,800 -985 Descending Denver Center
Wed 09:31:55 AM 41.1908 -105.1375 173° South 213 245 13,700 -885 Descending Denver Center
Wed 09:32:56 AM 41.1258 -105.1272 173° South 211 243 13,000 -344 Descending Denver Center
Wed 09:33:57 AM 41.0706 -105.1183 173° South 210 242 13,000  Level Denver Center
Wed 09:34:58 AM 41.0153 -105.1083 172° South 209 241 13,000  Level Denver Center
Wed 09:35:59 AM 40.9542 -105.0953 171° South 205 236 13,000  Level Denver Center
Wed 09:37:00 AM 40.8969 -105.0869 174° South 206 237 13,000  Level Denver Center
Wed 09:38:01 AM 40.8531 -105.0364 139° Southeast 211 243 13,000  Level Denver Center
Wed 09:39:02 AM 40.8047 -104.9736 135° Southeast 237 273 13,000  Level Denver Center
Wed 09:40:02 AM 40.7553 -104.9136 137° Southeast 241 277 13,000  Level Denver Center
Wed 09:41:03 AM 40.6825 -104.8850 163° South 249 287 13,000 -197 Level Denver Center
Wed 09:42:04 AM 40.6153 -104.8600 164° South 251 289 12,600 -836 Descending Denver Center
Wed 09:43:05 AM 40.5481 -104.8325 163° South 252 290 11,300 -787 Descending Denver Center
Wed 09:44:06 AM 40.4794 -104.8083 165° South 253 291 11,000 -148 Descending Denver Center
Wed 09:45:07 AM 40.4075 -104.7806 164° South 251 289 11,000  Level Denver Center
Wed 09:46:09 AM 40.3397 -104.7539 163° South 255 293 11,000  Level Denver Center
Wed 09:47:10 AM 40.2725 -104.7267 163° South 254 292 11,000 -295 Level Denver Center
Wed 09:48:11 AM 40.2058 -104.6983 162° South 252 290 10,400 -738 Descending Denver Center
Wed 09:49:12 AM 40.1386 -104.6844 171° South 245 282 9,500 -984 Descending Denver Center
Wed 09:50:13 AM 40.0694 -104.6875 182° South 230 265 8,400 -1,082 Descending Denver Center

Login

Don't have an account? Register now (free) for customized features, flight alerts, and more!